sensor_id;sensor_type;location;lat;lon;timestamp;P1;durP1;ratioP1;P2;durP2;ratioP2
15443;SDS011;7822;48.146;11.576;2022-09-09T00:09:15;1.85;;;1.50;;
15443;SDS011;7822;48.146;11.576;2022-09-09T00:11:46;1.38;;;1.25;;
15443;SDS011;7822;48.146;11.576;2022-09-09T00:14:20;2.72;;;1.40;;
15443;SDS011;7822;48.146;11.576;2022-09-09T00:16:55;2.08;;;1.50;;
15443;SDS011;7822;48.146;11.576;2022-09-09T00:19:28;2.35;;;1.45;;
15443;SDS011;7822;48.146;11.576;2022-09-09T00:22:08;2.38;;;1.40;;
15443;SDS011;7822;48.146;11.576;2022-09-09T00:24:45;1.77;;;1.30;;
15443;SDS011;7822;48.146;11.576;2022-09-09T00:27:16;1.70;;;1.60;;
15443;SDS011;7822;48.146;11.576;2022-09-09T00:29:52;1.77;;;1.45;;
15443;SDS011;7822;48.146;11.576;2022-09-09T00:32:24;1.83;;;1.70;;
15443;SDS011;7822;48.146;11.576;2022-09-09T00:34:57;1.75;;;1.65;;
15443;SDS011;7822;48.146;11.576;2022-09-09T00:37:28;2.60;;;1.83;;
15443;SDS011;7822;48.146;11.576;2022-09-09T00:40:01;2.17;;;1.77;;
15443;SDS011;7822;48.146;11.576;2022-09-09T00:42:36;2.28;;;2.00;;
15443;SDS011;7822;48.146;11.576;2022-09-09T00:45:19;2.97;;;2.00;;
15443;SDS011;7822;48.146;11.576;2022-09-09T00:48:05;2.22;;;1.90;;
15443;SDS011;7822;48.146;11.576;2022-09-09T00:50:41;2.75;;;2.40;;
15443;SDS011;7822;48.146;11.576;2022-09-09T00:53:22;4.18;;;2.80;;
15443;SDS011;7822;48.146;11.576;2022-09-09T00:56:01;6.80;;;3.10;;
15443;SDS011;7822;48.146;11.576;2022-09-09T00:58:36;2.83;;;2.55;;
15443;SDS011;7822;48.146;11.576;2022-09-09T01:01:04;3.63;;;2.65;;
15443;SDS011;7822;48.146;11.576;2022-09-09T01:03:36;3.65;;;2.42;;
15443;SDS011;7822;48.146;11.576;2022-09-09T01:06:12;4.30;;;2.50;;
15443;SDS011;7822;48.146;11.576;2022-09-09T01:08:52;2.38;;;2.15;;
15443;SDS011;7822;48.146;11.576;2022-09-09T01:11:32;5.85;;;2.55;;
15443;SDS011;7822;48.146;11.576;2022-09-09T01:14:11;3.15;;;2.47;;
15443;SDS011;7822;48.146;11.576;2022-09-09T01:16:59;4.60;;;2.55;;
15443;SDS011;7822;48.146;11.576;2022-09-09T01:19:35;2.25;;;1.70;;
15443;SDS011;7822;48.146;11.576;2022-09-09T01:22:20;3.55;;;2.10;;
15443;SDS011;7822;48.146;11.576;2022-09-09T01:25:01;1.92;;;1.50;;
15443;SDS011;7822;48.146;11.576;2022-09-09T01:27:44;1.40;;;1.30;;
15443;SDS011;7822;48.146;11.576;2022-09-09T01:30:15;1.60;;;1.40;;
15443;SDS011;7822;48.146;11.576;2022-09-09T01:32:46;1.27;;;1.17;;
15443;SDS011;7822;48.146;11.576;2022-09-09T01:35:18;2.35;;;1.27;;
15443;SDS011;7822;48.146;11.576;2022-09-09T01:37:56;1.60;;;1.25;;
15443;SDS011;7822;48.146;11.576;2022-09-09T01:40:25;1.20;;;1.10;;
15443;SDS011;7822;48.146;11.576;2022-09-09T01:42:54;1.38;;;1.10;;
15443;SDS011;7822;48.146;11.576;2022-09-09T01:45:22;1.40;;;1.30;;
15443;SDS011;7822;48.146;11.576;2022-09-09T01:47:51;1.40;;;1.13;;
15443;SDS011;7822;48.146;11.576;2022-09-09T01:50:20;1.45;;;1.23;;
15443;SDS011;7822;48.146;11.576;2022-09-09T01:52:49;2.28;;;1.60;;
15443;SDS011;7822;48.146;11.576;2022-09-09T01:55:21;1.05;;;1.00;;
15443;SDS011;7822;48.146;11.576;2022-09-09T01:57:58;1.20;;;1.10;;
15443;SDS011;7822;48.146;11.576;2022-09-09T02:00:37;2.25;;;1.08;;
15443;SDS011;7822;48.146;11.576;2022-09-09T02:03:12;1.65;;;1.10;;
15443;SDS011;7822;48.146;11.576;2022-09-09T02:05:49;2.13;;;1.23;;
15443;SDS011;7822;48.146;11.576;2022-09-09T02:08:24;1.13;;;1.02;;
15443;SDS011;7822;48.146;11.576;2022-09-09T02:10:56;1.25;;;1.10;;
15443;SDS011;7822;48.146;11.576;2022-09-09T02:13:30;1.98;;;1.08;;
15443;SDS011;7822;48.146;11.576;2022-09-09T02:16:03;1.13;;;0.95;;
15443;SDS011;7822;48.146;11.576;2022-09-09T02:18:35;1.77;;;1.08;;
15443;SDS011;7822;48.146;11.576;2022-09-09T02:21:08;1.58;;;1.20;;
15443;SDS011;7822;48.146;11.576;2022-09-09T02:23:39;1.23;;;1.13;;
15443;SDS011;7822;48.146;11.576;2022-09-09T02:26:11;1.90;;;1.15;;
15443;SDS011;7822;48.146;11.576;2022-09-09T02:28:47;2.17;;;1.20;;
15443;SDS011;7822;48.146;11.576;2022-09-09T02:31:17;1.38;;;1.00;;
15443;SDS011;7822;48.146;11.576;2022-09-09T02:33:50;0.88;;;0.88;;
15443;SDS011;7822;48.146;11.576;2022-09-09T02:36:23;1.50;;;1.40;;
15443;SDS011;7822;48.146;11.576;2022-09-09T02:38:55;2.47;;;1.20;;
15443;SDS011;7822;48.146;11.576;2022-09-09T02:41:24;2.70;;;1.33;;
15443;SDS011;7822;48.146;11.576;2022-09-09T02:43:59;1.50;;;1.00;;
15443;SDS011;7822;48.146;11.576;2022-09-09T02:46:36;2.00;;;1.00;;
15443;SDS011;7822;48.146;11.576;2022-09-09T02:49:17;1.38;;;1.20;;
15443;SDS011;7822;48.146;11.576;2022-09-09T02:51:52;0.95;;;0.82;;
15443;SDS011;7822;48.146;11.576;2022-09-09T02:54:28;2.85;;;0.93;;
15443;SDS011;7822;48.146;11.576;2022-09-09T02:56:59;1.48;;;1.30;;
15443;SDS011;7822;48.146;11.576;2022-09-09T02:59:32;2.20;;;1.25;;
15443;SDS011;7822;48.146;11.576;2022-09-09T03:02:00;2.35;;;1.52;;
15443;SDS011;7822;48.146;11.576;2022-09-09T03:04:28;1.30;;;1.20;;
15443;SDS011;7822;48.146;11.576;2022-09-09T03:06:57;1.30;;;1.20;;
15443;SDS011;7822;48.146;11.576;2022-09-09T03:09:25;1.65;;;1.23;;
15443;SDS011;7822;48.146;11.576;2022-09-09T03:11:53;2.28;;;1.20;;
15443;SDS011;7822;48.146;11.576;2022-09-09T03:14:21;1.15;;;0.90;;
15443;SDS011;7822;48.146;11.576;2022-09-09T03:16:52;3.25;;;1.20;;
15443;SDS011;7822;48.146;11.576;2022-09-09T03:19:22;2.13;;;1.60;;
15443;SDS011;7822;48.146;11.576;2022-09-09T03:21:50;1.75;;;1.08;;
15443;SDS011;7822;48.146;11.576;2022-09-09T03:24:18;1.20;;;1.10;;
15443;SDS011;7822;48.146;11.576;2022-09-09T03:26:45;1.17;;;0.98;;
15443;SDS011;7822;48.146;11.576;2022-09-09T03:29:13;1.27;;;1.00;;
15443;SDS011;7822;48.146;11.576;2022-09-09T03:31:41;1.23;;;1.05;;
15443;SDS011;7822;48.146;11.576;2022-09-09T03:34:10;1.13;;;1.00;;
15443;SDS011;7822;48.146;11.576;2022-09-09T03:36:39;1.50;;;1.17;;
15443;SDS011;7822;48.146;11.576;2022-09-09T03:39:07;1.98;;;1.05;;
15443;SDS011;7822;48.146;11.576;2022-09-09T03:41:35;1.85;;;1.10;;
15443;SDS011;7822;48.146;11.576;2022-09-09T03:44:03;2.13;;;1.10;;
15443;SDS011;7822;48.146;11.576;2022-09-09T03:46:31;2.17;;;1.30;;
15443;SDS011;7822;48.146;11.576;2022-09-09T03:49:00;1.98;;;1.30;;
15443;SDS011;7822;48.146;11.576;2022-09-09T03:51:29;1.33;;;1.00;;
15443;SDS011;7822;48.146;11.576;2022-09-09T03:53:56;1.17;;;1.10;;
15443;SDS011;7822;48.146;11.576;2022-09-09T03:56:24;2.35;;;0.90;;
15443;SDS011;7822;48.146;11.576;2022-09-09T03:58:52;1.00;;;0.90;;
15443;SDS011;7822;48.146;11.576;2022-09-09T04:01:20;1.20;;;1.10;;
15443;SDS011;7822;48.146;11.576;2022-09-09T04:03:47;1.73;;;1.00;;
15443;SDS011;7822;48.146;11.576;2022-09-09T04:06:16;1.15;;;1.05;;
15443;SDS011;7822;48.146;11.576;2022-09-09T04:08:45;2.20;;;1.25;;
15443;SDS011;7822;48.146;11.576;2022-09-09T04:11:14;2.83;;;1.27;;
15443;SDS011;7822;48.146;11.576;2022-09-09T04:13:42;2.22;;;1.20;;
15443;SDS011;7822;48.146;11.576;2022-09-09T04:16:10;0.80;;;0.80;;
15443;SDS011;7822;48.146;11.576;2022-09-09T04:18:39;1.75;;;1.10;;
15443;SDS011;7822;48.146;11.576;2022-09-09T04:21:08;1.80;;;1.40;;
15443;SDS011;7822;48.146;11.576;2022-09-09T04:23:38;1.83;;;1.45;;
15443;SDS011;7822;48.146;11.576;2022-09-09T04:26:08;3.10;;;1.50;;
15443;SDS011;7822;48.146;11.576;2022-09-09T04:28:36;2.60;;;1.30;;
15443;SDS011;7822;48.146;11.576;2022-09-09T04:31:05;1.10;;;1.00;;
15443;SDS011;7822;48.146;11.576;2022-09-09T04:33:33;1.27;;;1.08;;
15443;SDS011;7822;48.146;11.576;2022-09-09T04:36:05;1.65;;;1.08;;
15443;SDS011;7822;48.146;11.576;2022-09-09T04:38:34;1.02;;;1.02;;
15443;SDS011;7822;48.146;11.576;2022-09-09T04:41:01;1.50;;;1.00;;
15443;SDS011;7822;48.146;11.576;2022-09-09T04:43:30;1.67;;;1.10;;
15443;SDS011;7822;48.146;11.576;2022-09-09T04:45:58;2.10;;;0.95;;
15443;SDS011;7822;48.146;11.576;2022-09-09T04:48:26;1.48;;;1.00;;
15443;SDS011;7822;48.146;11.576;2022-09-09T04:50:54;3.03;;;1.20;;
15443;SDS011;7822;48.146;11.576;2022-09-09T04:53:23;1.35;;;1.25;;
15443;SDS011;7822;48.146;11.576;2022-09-09T04:55:51;2.05;;;1.30;;
15443;SDS011;7822;48.146;11.576;2022-09-09T04:58:19;1.27;;;0.95;;
15443;SDS011;7822;48.146;11.576;2022-09-09T05:00:49;1.08;;;0.85;;
15443;SDS011;7822;48.146;11.576;2022-09-09T05:03:18;1.90;;;1.20;;
15443;SDS011;7822;48.146;11.576;2022-09-09T05:05:46;1.67;;;0.90;;
15443;SDS011;7822;48.146;11.576;2022-09-09T05:08:13;2.40;;;1.20;;
15443;SDS011;7822;48.146;11.576;2022-09-09T05:10:41;1.73;;;1.10;;
15443;SDS011;7822;48.146;11.576;2022-09-09T05:13:09;2.33;;;1.10;;
15443;SDS011;7822;48.146;11.576;2022-09-09T05:15:37;1.80;;;1.20;;
15443;SDS011;7822;48.146;11.576;2022-09-09T05:18:07;1.45;;;1.17;;
15443;SDS011;7822;48.146;11.576;2022-09-09T05:20:34;1.63;;;1.30;;
15443;SDS011;7822;48.146;11.576;2022-09-09T05:23:02;1.58;;;1.25;;
15443;SDS011;7822;48.146;11.576;2022-09-09T05:25:30;2.80;;;1.27;;
15443;SDS011;7822;48.146;11.576;2022-09-09T05:27:58;1.90;;;1.10;;
15443;SDS011;7822;48.146;11.576;2022-09-09T05:30:25;1.98;;;1.00;;
15443;SDS011;7822;48.146;11.576;2022-09-09T05:32:55;1.98;;;1.17;;
15443;SDS011;7822;48.146;11.576;2022-09-09T05:35:24;1.83;;;1.23;;
15443;SDS011;7822;48.146;11.576;2022-09-09T05:37:52;1.77;;;1.30;;
15443;SDS011;7822;48.146;11.576;2022-09-09T05:40:22;2.65;;;1.25;;
15443;SDS011;7822;48.146;11.576;2022-09-09T05:42:49;2.28;;;1.20;;
15443;SDS011;7822;48.146;11.576;2022-09-09T05:45:17;2.67;;;1.20;;
15443;SDS011;7822;48.146;11.576;2022-09-09T05:47:50;2.33;;;1.50;;
15443;SDS011;7822;48.146;11.576;2022-09-09T05:50:19;2.50;;;1.30;;
15443;SDS011;7822;48.146;11.576;2022-09-09T05:52:48;2.13;;;1.27;;
15443;SDS011;7822;48.146;11.576;2022-09-09T05:55:17;4.75;;;1.50;;
15443;SDS011;7822;48.146;11.576;2022-09-09T05:57:47;1.92;;;0.93;;
15443;SDS011;7822;48.146;11.576;2022-09-09T06:00:18;2.00;;;1.05;;
15443;SDS011;7822;48.146;11.576;2022-09-09T06:02:50;2.22;;;1.27;;
15443;SDS011;7822;48.146;11.576;2022-09-09T06:05:18;2.20;;;1.20;;
15443;SDS011;7822;48.146;11.576;2022-09-09T06:07:53;3.60;;;1.27;;
15443;SDS011;7822;48.146;11.576;2022-09-09T06:10:21;1.83;;;1.30;;
15443;SDS011;7822;48.146;11.576;2022-09-09T06:12:48;2.45;;;1.20;;
15443;SDS011;7822;48.146;11.576;2022-09-09T06:15:19;2.45;;;1.10;;
15443;SDS011;7822;48.146;11.576;2022-09-09T06:17:47;2.05;;;1.30;;
15443;SDS011;7822;48.146;11.576;2022-09-09T06:20:21;3.42;;;1.42;;
15443;SDS011;7822;48.146;11.576;2022-09-09T06:22:49;1.75;;;1.20;;
15443;SDS011;7822;48.146;11.576;2022-09-09T06:25:18;1.60;;;1.17;;
15443;SDS011;7822;48.146;11.576;2022-09-09T06:27:51;2.20;;;1.10;;
15443;SDS011;7822;48.146;11.576;2022-09-09T06:30:18;2.20;;;1.10;;
15443;SDS011;7822;48.146;11.576;2022-09-09T06:32:46;1.77;;;1.30;;
15443;SDS011;7822;48.146;11.576;2022-09-09T06:35:16;1.43;;;1.10;;
15443;SDS011;7822;48.146;11.576;2022-09-09T06:37:44;2.50;;;1.10;;
15443;SDS011;7822;48.146;11.576;2022-09-09T06:40:14;1.33;;;1.10;;
15443;SDS011;7822;48.146;11.576;2022-09-09T06:42:44;2.78;;;1.20;;
15443;SDS011;7822;48.146;11.576;2022-09-09T06:45:11;2.77;;;1.30;;
15443;SDS011;7822;48.146;11.576;2022-09-09T06:47:39;1.95;;;0.80;;
15443;SDS011;7822;48.146;11.576;2022-09-09T06:50:07;1.17;;;1.00;;
15443;SDS011;7822;48.146;11.576;2022-09-09T06:52:36;1.70;;;0.95;;
15443;SDS011;7822;48.146;11.576;2022-09-09T06:55:05;2.13;;;1.17;;
15443;SDS011;7822;48.146;11.576;2022-09-09T06:57:33;3.92;;;2.53;;
15443;SDS011;7822;48.146;11.576;2022-09-09T07:00:05;5.00;;;2.40;;
15443;SDS011;7822;48.146;11.576;2022-09-09T07:02:34;2.13;;;1.42;;
15443;SDS011;7822;48.146;11.576;2022-09-09T07:05:05;3.05;;;1.73;;
15443;SDS011;7822;48.146;11.576;2022-09-09T07:07:34;1.85;;;1.13;;
15443;SDS011;7822;48.146;11.576;2022-09-09T07:10:03;2.67;;;1.05;;
15443;SDS011;7822;48.146;11.576;2022-09-09T07:12:31;1.27;;;1.00;;
15443;SDS011;7822;48.146;11.576;2022-09-09T07:14:58;1.92;;;1.40;;
15443;SDS011;7822;48.146;11.576;2022-09-09T07:17:28;1.35;;;1.13;;
15443;SDS011;7822;48.146;11.576;2022-09-09T07:19:56;4.07;;;1.30;;
15443;SDS011;7822;48.146;11.576;2022-09-09T07:22:23;1.55;;;1.13;;
15443;SDS011;7822;48.146;11.576;2022-09-09T07:24:51;2.20;;;1.20;;
15443;SDS011;7822;48.146;11.576;2022-09-09T07:27:19;1.92;;;1.08;;
15443;SDS011;7822;48.146;11.576;2022-09-09T07:29:47;1.33;;;1.07;;
15443;SDS011;7822;48.146;11.576;2022-09-09T07:32:14;1.40;;;1.10;;
15443;SDS011;7822;48.146;11.576;2022-09-09T07:34:44;3.25;;;1.20;;
15443;SDS011;7822;48.146;11.576;2022-09-09T07:37:12;1.00;;;0.90;;
15443;SDS011;7822;48.146;11.576;2022-09-09T07:39:40;2.03;;;0.90;;
15443;SDS011;7822;48.146;11.576;2022-09-09T07:42:08;1.13;;;0.93;;
15443;SDS011;7822;48.146;11.576;2022-09-09T07:44:37;1.92;;;1.30;;
15443;SDS011;7822;48.146;11.576;2022-09-09T07:47:05;2.38;;;1.58;;
15443;SDS011;7822;48.146;11.576;2022-09-09T07:49:33;1.23;;;1.10;;
15443;SDS011;7822;48.146;11.576;2022-09-09T07:52:02;2.05;;;0.90;;
15443;SDS011;7822;48.146;11.576;2022-09-09T07:54:30;1.20;;;1.10;;
15443;SDS011;7822;48.146;11.576;2022-09-09T07:56:58;0.90;;;0.90;;
15443;SDS011;7822;48.146;11.576;2022-09-09T07:59:26;1.73;;;1.10;;
15443;SDS011;7822;48.146;11.576;2022-09-09T08:01:56;3.85;;;1.30;;
15443;SDS011;7822;48.146;11.576;2022-09-09T08:04:25;1.90;;;1.20;;
15443;SDS011;7822;48.146;11.576;2022-09-09T08:06:55;2.35;;;1.10;;
15443;SDS011;7822;48.146;11.576;2022-09-09T08:09:25;1.50;;;1.10;;
15443;SDS011;7822;48.146;11.576;2022-09-09T08:11:55;4.45;;;1.20;;
15443;SDS011;7822;48.146;11.576;2022-09-09T08:14:24;3.05;;;1.35;;
15443;SDS011;7822;48.146;11.576;2022-09-09T08:16:52;1.50;;;1.10;;
15443;SDS011;7822;48.146;11.576;2022-09-09T08:19:20;1.27;;;1.17;;
15443;SDS011;7822;48.146;11.576;2022-09-09T08:21:48;2.03;;;1.35;;
15443;SDS011;7822;48.146;11.576;2022-09-09T08:24:16;1.90;;;1.00;;
15443;SDS011;7822;48.146;11.576;2022-09-09T08:26:47;1.50;;;1.15;;
15443;SDS011;7822;48.146;11.576;2022-09-09T08:29:16;2.17;;;1.02;;
15443;SDS011;7822;48.146;11.576;2022-09-09T08:31:45;1.70;;;1.13;;
15443;SDS011;7822;48.146;11.576;2022-09-09T08:34:14;1.17;;;1.15;;
15443;SDS011;7822;48.146;11.576;2022-09-09T08:36:44;1.90;;;1.33;;
15443;SDS011;7822;48.146;11.576;2022-09-09T08:39:14;3.38;;;1.33;;
15443;SDS011;7822;48.146;11.576;2022-09-09T08:45:00;1.92;;;1.05;;
15443;SDS011;7822;48.146;11.576;2022-09-09T08:47:41;1.20;;;0.93;;
15443;SDS011;7822;48.146;11.576;2022-09-09T08:50:19;2.80;;;1.48;;
15443;SDS011;7822;48.146;11.576;2022-09-09T08:52:55;3.38;;;1.50;;
15443;SDS011;7822;48.146;11.576;2022-09-09T08:55:31;3.00;;;1.40;;
15443;SDS011;7822;48.146;11.576;2022-09-09T08:58:11;3.85;;;1.65;;
15443;SDS011;7822;48.146;11.576;2022-09-09T09:00:47;1.20;;;1.10;;
15443;SDS011;7822;48.146;11.576;2022-09-09T09:03:28;2.72;;;1.38;;
15443;SDS011;7822;48.146;11.576;2022-09-09T09:06:04;2.30;;;0.98;;
15443;SDS011;7822;48.146;11.576;2022-09-09T09:08:39;3.38;;;1.40;;
15443;SDS011;7822;48.146;11.576;2022-09-09T09:11:15;3.63;;;1.30;;
15443;SDS011;7822;48.146;11.576;2022-09-09T09:13:45;2.97;;;1.63;;
15443;SDS011;7822;48.146;11.576;2022-09-09T09:16:19;2.10;;;1.42;;
15443;SDS011;7822;48.146;11.576;2022-09-09T09:18:51;2.08;;;1.40;;
15443;SDS011;7822;48.146;11.576;2022-09-09T09:21:21;1.40;;;1.08;;
15443;SDS011;7822;48.146;11.576;2022-09-09T09:24:01;2.55;;;1.02;;
15443;SDS011;7822;48.146;11.576;2022-09-09T09:26:33;1.58;;;0.88;;
15443;SDS011;7822;48.146;11.576;2022-09-09T09:29:08;3.15;;;1.15;;
15443;SDS011;7822;48.146;11.576;2022-09-09T09:31:38;1.13;;;0.93;;
15443;SDS011;7822;48.146;11.576;2022-09-09T09:34:09;2.10;;;0.90;;
15443;SDS011;7822;48.146;11.576;2022-09-09T09:36:38;2.63;;;1.10;;
15443;SDS011;7822;48.146;11.576;2022-09-09T09:39:08;1.42;;;0.80;;
15443;SDS011;7822;48.146;11.576;2022-09-09T09:41:56;1.27;;;1.10;;
15443;SDS011;7822;48.146;11.576;2022-09-09T09:44:33;1.77;;;1.10;;
15443;SDS011;7822;48.146;11.576;2022-09-09T09:47:07;3.00;;;1.00;;
15443;SDS011;7822;48.146;11.576;2022-09-09T09:49:36;2.78;;;1.13;;
15443;SDS011;7822;48.146;11.576;2022-09-09T09:52:05;3.10;;;1.60;;
15443;SDS011;7822;48.146;11.576;2022-09-09T09:54:38;1.80;;;1.50;;
15443;SDS011;7822;48.146;11.576;2022-09-09T09:57:09;1.48;;;1.38;;
15443;SDS011;7822;48.146;11.576;2022-09-09T09:59:39;1.65;;;1.10;;
15443;SDS011;7822;48.146;11.576;2022-09-09T10:02:14;1.83;;;1.27;;
15443;SDS011;7822;48.146;11.576;2022-09-09T10:04:44;1.30;;;1.20;;
15443;SDS011;7822;48.146;11.576;2022-09-09T10:07:13;2.30;;;1.35;;
15443;SDS011;7822;48.146;11.576;2022-09-09T10:09:46;1.65;;;1.10;;
15443;SDS011;7822;48.146;11.576;2022-09-09T10:12:20;2.05;;;1.15;;
15443;SDS011;7822;48.146;11.576;2022-09-09T10:15:00;1.45;;;1.40;;
15443;SDS011;7822;48.146;11.576;2022-09-09T10:17:36;2.25;;;1.50;;
15443;SDS011;7822;48.146;11.576;2022-09-09T10:20:16;1.85;;;1.30;;
15443;SDS011;7822;48.146;11.576;2022-09-09T10:22:50;2.55;;;1.25;;
15443;SDS011;7822;48.146;11.576;2022-09-09T10:25:31;3.83;;;1.20;;
15443;SDS011;7822;48.146;11.576;2022-09-09T10:28:15;1.23;;;1.13;;
15443;SDS011;7822;48.146;11.576;2022-09-09T10:31:05;1.60;;;1.30;;
15443;SDS011;7822;48.146;11.576;2022-09-09T10:33:44;2.92;;;1.08;;
15443;SDS011;7822;48.146;11.576;2022-09-09T10:36:19;1.10;;;0.95;;
15443;SDS011;7822;48.146;11.576;2022-09-09T10:38:51;1.38;;;0.90;;
15443;SDS011;7822;48.146;11.576;2022-09-09T10:41:26;2.33;;;1.10;;
15443;SDS011;7822;48.146;11.576;2022-09-09T10:44:12;2.45;;;1.00;;
15443;SDS011;7822;48.146;11.576;2022-09-09T10:46:54;2.22;;;1.40;;
15443;SDS011;7822;48.146;11.576;2022-09-09T10:49:42;2.72;;;1.23;;
15443;SDS011;7822;48.146;11.576;2022-09-09T10:52:27;1.92;;;1.20;;
15443;SDS011;7822;48.146;11.576;2022-09-09T10:55:06;1.50;;;1.27;;
15443;SDS011;7822;48.146;11.576;2022-09-09T10:57:41;2.28;;;1.30;;
15443;SDS011;7822;48.146;11.576;2022-09-09T11:00:15;2.15;;;0.98;;
15443;SDS011;7822;48.146;11.576;2022-09-09T11:02:47;1.65;;;1.08;;
15443;SDS011;7822;48.146;11.576;2022-09-09T11:05:19;1.80;;;0.80;;
15443;SDS011;7822;48.146;11.576;2022-09-09T11:07:50;1.58;;;1.10;;
15443;SDS011;7822;48.146;11.576;2022-09-09T11:10:23;2.08;;;1.20;;
15443;SDS011;7822;48.146;11.576;2022-09-09T11:12:57;1.55;;;0.93;;
15443;SDS011;7822;48.146;11.576;2022-09-09T11:15:31;1.52;;;0.90;;
15443;SDS011;7822;48.146;11.576;2022-09-09T11:18:10;1.80;;;1.30;;
15443;SDS011;7822;48.146;11.576;2022-09-09T11:20:41;2.88;;;1.10;;
15443;SDS011;7822;48.146;11.576;2022-09-09T11:23:11;1.52;;;0.93;;
15443;SDS011;7822;48.146;11.576;2022-09-09T11:25:42;1.02;;;0.90;;
15443;SDS011;7822;48.146;11.576;2022-09-09T11:28:32;1.63;;;1.00;;
15443;SDS011;7822;48.146;11.576;2022-09-09T11:31:18;1.00;;;0.90;;
15443;SDS011;7822;48.146;11.576;2022-09-09T11:34:06;1.67;;;0.80;;
15443;SDS011;7822;48.146;11.576;2022-09-09T11:36:49;1.75;;;0.90;;
15443;SDS011;7822;48.146;11.576;2022-09-09T11:39:38;1.20;;;0.93;;
15443;SDS011;7822;48.146;11.576;2022-09-09T11:42:18;1.95;;;0.90;;
15443;SDS011;7822;48.146;11.576;2022-09-09T11:44:47;0.90;;;0.90;;
15443;SDS011;7822;48.146;11.576;2022-09-09T11:47:19;0.95;;;0.70;;
15443;SDS011;7822;48.146;11.576;2022-09-09T11:49:52;1.13;;;0.77;;
15443;SDS011;7822;48.146;11.576;2022-09-09T11:52:21;1.17;;;0.70;;
15443;SDS011;7822;48.146;11.576;2022-09-09T11:54:54;1.35;;;0.90;;
15443;SDS011;7822;48.146;11.576;2022-09-09T11:57:24;1.85;;;0.80;;
15443;SDS011;7822;48.146;11.576;2022-09-09T11:59:58;3.40;;;0.75;;
15443;SDS011;7822;48.146;11.576;2022-09-09T12:02:27;1.63;;;0.77;;
15443;SDS011;7822;48.146;11.576;2022-09-09T12:04:59;2.03;;;0.70;;
15443;SDS011;7822;48.146;11.576;2022-09-09T12:07:32;0.70;;;0.70;;
15443;SDS011;7822;48.146;11.576;2022-09-09T12:10:03;2.15;;;0.98;;
15443;SDS011;7822;48.146;11.576;2022-09-09T12:12:46;1.00;;;0.73;;
15443;SDS011;7822;48.146;11.576;2022-09-09T12:15:18;1.73;;;1.05;;
15443;SDS011;7822;48.146;11.576;2022-09-09T12:17:49;2.20;;;0.90;;
15443;SDS011;7822;48.146;11.576;2022-09-09T12:20:22;0.95;;;0.80;;
15443;SDS011;7822;48.146;11.576;2022-09-09T12:22:57;0.52;;;0.52;;
15443;SDS011;7822;48.146;11.576;2022-09-09T12:25:50;1.73;;;0.70;;
15443;SDS011;7822;48.146;11.576;2022-09-09T12:28:25;0.88;;;0.80;;
15443;SDS011;7822;48.146;11.576;2022-09-09T12:31:01;0.65;;;0.65;;
15443;SDS011;7822;48.146;11.576;2022-09-09T12:33:37;1.63;;;0.82;;
15443;SDS011;7822;48.146;11.576;2022-09-09T12:36:11;2.05;;;1.00;;
15443;SDS011;7822;48.146;11.576;2022-09-09T12:38:41;1.50;;;0.63;;
15443;SDS011;7822;48.146;11.576;2022-09-09T12:41:17;2.15;;;0.90;;
15443;SDS011;7822;48.146;11.576;2022-09-09T12:43:47;1.58;;;0.90;;
15443;SDS011;7822;48.146;11.576;2022-09-09T12:46:19;0.80;;;0.77;;
15443;SDS011;7822;48.146;11.576;2022-09-09T12:48:52;1.45;;;0.82;;
15443;SDS011;7822;48.146;11.576;2022-09-09T12:51:24;1.25;;;0.70;;
15443;SDS011;7822;48.146;11.576;2022-09-09T12:53:55;0.63;;;0.63;;
15443;SDS011;7822;48.146;11.576;2022-09-09T12:56:24;2.10;;;0.80;;
15443;SDS011;7822;48.146;11.576;2022-09-09T12:58:54;1.38;;;0.80;;
15443;SDS011;7822;48.146;11.576;2022-09-09T13:01:25;1.05;;;0.70;;
15443;SDS011;7822;48.146;11.576;2022-09-09T13:03:55;0.80;;;0.70;;
15443;SDS011;7822;48.146;11.576;2022-09-09T13:06:24;1.10;;;0.70;;
15443;SDS011;7822;48.146;11.576;2022-09-09T13:08:55;1.02;;;0.75;;
15443;SDS011;7822;48.146;11.576;2022-09-09T13:11:25;1.02;;;0.80;;
15443;SDS011;7822;48.146;11.576;2022-09-09T13:13:58;2.10;;;0.82;;
15443;SDS011;7822;48.146;11.576;2022-09-09T13:16:30;0.80;;;0.75;;
15443;SDS011;7822;48.146;11.576;2022-09-09T13:19:17;2.92;;;0.90;;
15443;SDS011;7822;48.146;11.576;2022-09-09T13:21:57;1.88;;;0.88;;
15443;SDS011;7822;48.146;11.576;2022-09-09T13:24:27;1.23;;;0.50;;
15443;SDS011;7822;48.146;11.576;2022-09-09T13:26:57;1.67;;;0.50;;
15443;SDS011;7822;48.146;11.576;2022-09-09T13:29:28;1.48;;;0.90;;
15443;SDS011;7822;48.146;11.576;2022-09-09T13:32:03;2.65;;;0.93;;
15443;SDS011;7822;48.146;11.576;2022-09-09T13:34:33;1.10;;;0.70;;
15443;SDS011;7822;48.146;11.576;2022-09-09T13:37:04;1.40;;;0.80;;
15443;SDS011;7822;48.146;11.576;2022-09-09T13:39:33;2.17;;;0.80;;
15443;SDS011;7822;48.146;11.576;2022-09-09T13:42:03;1.35;;;0.70;;
15443;SDS011;7822;48.146;11.576;2022-09-09T13:44:33;0.82;;;0.50;;
15443;SDS011;7822;48.146;11.576;2022-09-09T13:47:04;0.50;;;0.50;;
15443;SDS011;7822;48.146;11.576;2022-09-09T13:49:36;1.23;;;0.95;;
15443;SDS011;7822;48.146;11.576;2022-09-09T13:52:08;2.20;;;0.70;;
15443;SDS011;7822;48.146;11.576;2022-09-09T13:54:38;1.30;;;0.70;;
15443;SDS011;7822;48.146;11.576;2022-09-09T13:57:05;1.48;;;0.85;;
15443;SDS011;7822;48.146;11.576;2022-09-09T13:59:42;0.68;;;0.65;;
15443;SDS011;7822;48.146;11.576;2022-09-09T14:02:29;1.25;;;0.70;;
15443;SDS011;7822;48.146;11.576;2022-09-09T14:04:58;0.95;;;0.68;;
15443;SDS011;7822;48.146;11.576;2022-09-09T14:07:27;1.20;;;0.77;;
15443;SDS011;7822;48.146;11.576;2022-09-09T14:09:55;0.52;;;0.52;;
15443;SDS011;7822;48.146;11.576;2022-09-09T14:12:22;1.13;;;0.80;;
15443;SDS011;7822;48.146;11.576;2022-09-09T14:14:51;1.02;;;0.70;;
15443;SDS011;7822;48.146;11.576;2022-09-09T14:17:19;1.00;;;0.65;;
15443;SDS011;7822;48.146;11.576;2022-09-09T14:19:48;0.50;;;0.50;;
15443;SDS011;7822;48.146;11.576;2022-09-09T14:22:16;1.30;;;0.93;;
15443;SDS011;7822;48.146;11.576;2022-09-09T14:24:45;0.85;;;0.60;;
15443;SDS011;7822;48.146;11.576;2022-09-09T14:27:12;0.80;;;0.60;;
15443;SDS011;7822;48.146;11.576;2022-09-09T14:29:40;1.05;;;0.60;;
15443;SDS011;7822;48.146;11.576;2022-09-09T14:32:09;0.77;;;0.77;;
15443;SDS011;7822;48.146;11.576;2022-09-09T14:34:38;1.05;;;0.80;;
15443;SDS011;7822;48.146;11.576;2022-09-09T14:37:06;0.60;;;0.60;;
15443;SDS011;7822;48.146;11.576;2022-09-09T14:39:34;1.00;;;0.77;;
15443;SDS011;7822;48.146;11.576;2022-09-09T14:42:03;1.52;;;0.77;;
15443;SDS011;7822;48.146;11.576;2022-09-09T14:44:31;0.95;;;0.60;;
15443;SDS011;7822;48.146;11.576;2022-09-09T14:46:59;5.13;;;1.27;;
15443;SDS011;7822;48.146;11.576;2022-09-09T14:49:27;1.17;;;0.73;;
15443;SDS011;7822;48.146;11.576;2022-09-09T14:51:55;1.00;;;0.90;;
15443;SDS011;7822;48.146;11.576;2022-09-09T14:54:22;2.22;;;0.93;;
15443;SDS011;7822;48.146;11.576;2022-09-09T14:56:50;1.42;;;0.93;;
15443;SDS011;7822;48.146;11.576;2022-09-09T14:59:19;2.03;;;0.98;;
15443;SDS011;7822;48.146;11.576;2022-09-09T15:01:48;1.02;;;0.80;;
15443;SDS011;7822;48.146;11.576;2022-09-09T15:04:16;2.47;;;0.90;;
15443;SDS011;7822;48.146;11.576;2022-09-09T15:06:45;2.05;;;0.82;;
15443;SDS011;7822;48.146;11.576;2022-09-09T15:09:14;1.20;;;0.85;;
15443;SDS011;7822;48.146;11.576;2022-09-09T15:11:42;1.92;;;0.80;;
15443;SDS011;7822;48.146;11.576;2022-09-09T15:14:10;2.33;;;0.82;;
15443;SDS011;7822;48.146;11.576;2022-09-09T15:16:39;2.78;;;1.00;;
15443;SDS011;7822;48.146;11.576;2022-09-09T15:19:07;1.90;;;0.75;;
15443;SDS011;7822;48.146;11.576;2022-09-09T15:21:36;0.60;;;0.60;;
15443;SDS011;7822;48.146;11.576;2022-09-09T15:24:04;1.00;;;0.80;;
15443;SDS011;7822;48.146;11.576;2022-09-09T15:26:34;1.58;;;1.00;;